createdAt,value
2023-05-09T00:00:56.395Z,740.00
2023-05-09T00:01:56.752Z,738.00
2023-05-09T00:02:56.456Z,737.00
2023-05-09T00:03:56.485Z,736.00
2023-05-09T00:04:56.465Z,736.00
2023-05-09T00:05:56.451Z,736.00
2023-05-09T00:06:56.496Z,732.00
2023-05-09T00:07:56.476Z,729.00
2023-05-09T00:08:56.506Z,732.00
2023-05-09T00:09:56.514Z,735.00
2023-05-09T00:10:56.584Z,735.00
2023-05-09T00:11:56.568Z,733.00
2023-05-09T00:12:56.594Z,736.00
2023-05-09T00:13:56.559Z,738.00
2023-05-09T00:14:56.570Z,732.00
2023-05-09T00:15:56.617Z,734.00
2023-05-09T00:16:56.579Z,737.00
2023-05-09T00:17:56.675Z,738.00
2023-05-09T00:18:56.509Z,738.00
2023-05-09T00:19:56.533Z,737.00
2023-05-09T00:20:56.539Z,734.00
2023-05-09T00:21:56.549Z,734.00
2023-05-09T00:22:56.524Z,734.00
2023-05-09T00:23:56.495Z,732.00
2023-05-09T00:24:56.526Z,729.00
2023-05-09T00:25:56.510Z,724.00
2023-05-09T00:26:56.506Z,723.00
2023-05-09T00:27:56.481Z,723.00
2023-05-09T00:28:56.508Z,724.00
2023-05-09T00:29:56.509Z,726.00
2023-05-09T00:30:56.549Z,730.00
2023-05-09T00:31:56.548Z,729.00
2023-05-09T00:32:56.577Z,730.00
2023-05-09T00:33:56.606Z,730.00
2023-05-09T00:34:56.503Z,730.00
2023-05-09T00:35:56.509Z,728.00
2023-05-09T00:36:56.497Z,726.00
2023-05-09T00:37:56.565Z,731.00
2023-05-09T00:38:56.514Z,724.00
2023-05-09T00:39:56.570Z,723.00
2023-05-09T00:40:56.614Z,723.00
2023-05-09T00:41:56.616Z,724.00
2023-05-09T00:42:56.691Z,728.00
2023-05-09T00:43:56.717Z,727.00
2023-05-09T00:44:56.739Z,727.00
2023-05-09T00:45:56.831Z,727.00
2023-05-09T00:46:56.789Z,726.00
2023-05-09T00:47:56.904Z,727.00
2023-05-09T00:48:56.793Z,727.00
2023-05-09T00:49:56.920Z,728.00
2023-05-09T00:50:56.883Z,726.00
2023-05-09T00:51:56.913Z,725.00
2023-05-09T00:52:56.917Z,725.00
2023-05-09T00:53:56.918Z,725.00
2023-05-09T00:54:56.902Z,727.00
2023-05-09T00:55:56.919Z,727.00
2023-05-09T00:56:56.934Z,725.00
2023-05-09T00:57:56.946Z,727.00
2023-05-09T00:58:56.957Z,727.00
2023-05-09T00:59:56.956Z,727.00
2023-05-09T01:00:56.970Z,728.00
2023-05-09T01:01:56.970Z,727.00
2023-05-09T01:02:57.158Z,726.00
2023-05-09T01:03:56.979Z,727.00
2023-05-09T01:04:57.000Z,728.00
2023-05-09T01:05:57.064Z,730.00
2023-05-09T01:06:57.013Z,730.00
2023-05-09T01:07:56.969Z,734.00
2023-05-09T01:08:57.031Z,731.00
2023-05-09T01:09:57.044Z,728.00
2023-05-09T01:10:57.065Z,730.00
2023-05-09T01:11:57.133Z,728.00
2023-05-09T01:12:57.138Z,725.00
2023-05-09T01:13:57.150Z,722.00
2023-05-09T01:14:57.173Z,719.00
2023-05-09T01:15:57.185Z,716.00
2023-05-09T01:16:57.663Z,719.00
2023-05-09T01:17:57.277Z,720.00
2023-05-09T01:18:57.286Z,719.00
2023-05-09T01:19:57.281Z,720.00
2023-05-09T01:20:57.306Z,719.00
2023-05-09T01:21:57.460Z,717.00
2023-05-09T01:22:57.314Z,713.00
2023-05-09T01:23:57.340Z,712.00
2023-05-09T01:24:57.341Z,713.00
2023-05-09T01:25:57.318Z,713.00
2023-05-09T01:26:57.343Z,711.00
2023-05-09T01:27:57.337Z,711.00
2023-05-09T01:28:57.327Z,708.00
2023-05-09T01:29:57.351Z,708.00
2023-05-09T01:30:57.349Z,708.00
2023-05-09T01:31:57.325Z,712.00
2023-05-09T01:32:57.344Z,712.00
2023-05-09T01:33:57.342Z,715.00
2023-05-09T01:34:57.312Z,716.00
2023-05-09T01:35:57.382Z,714.00
2023-05-09T01:36:57.342Z,709.00
2023-05-09T01:37:57.430Z,709.00
2023-05-09T01:38:57.358Z,710.00
2023-05-09T01:39:57.366Z,710.00
2023-05-09T01:40:57.360Z,708.00
2023-05-09T01:41:57.639Z,706.00
2023-05-09T01:42:57.368Z,706.00
2023-05-09T01:43:57.497Z,705.00
2023-05-09T01:44:57.397Z,707.00
2023-05-09T01:45:57.429Z,706.00
2023-05-09T01:46:57.474Z,707.00
2023-05-09T01:47:57.499Z,706.00
2023-05-09T01:48:57.435Z,706.00
2023-05-09T01:49:57.443Z,709.00
2023-05-09T01:50:57.412Z,711.00
2023-05-09T01:51:57.434Z,710.00
2023-05-09T01:52:57.456Z,711.00
2023-05-09T01:53:57.601Z,710.00
2023-05-09T01:54:57.428Z,712.00
2023-05-09T01:55:57.447Z,709.00
2023-05-09T01:56:57.535Z,708.00
2023-05-09T01:57:57.477Z,708.00
2023-05-09T01:58:57.478Z,708.00
2023-05-09T01:59:57.485Z,709.00
2023-05-09T02:00:57.512Z,707.00
2023-05-09T02:01:57.672Z,709.00
2023-05-09T02:02:57.534Z,707.00
2023-05-09T02:03:57.445Z,704.00
2023-05-09T02:04:57.470Z,705.00
2023-05-09T02:05:57.491Z,704.00
2023-05-09T02:06:57.467Z,703.00
2023-05-09T02:07:57.451Z,704.00
2023-05-09T02:08:57.513Z,702.00
2023-05-09T02:09:57.560Z,699.00
2023-05-09T02:10:57.527Z,699.00
2023-05-09T02:11:57.548Z,700.00
2023-05-09T02:12:57.635Z,703.00
2023-05-09T02:13:57.540Z,706.00
2023-05-09T02:14:57.556Z,704.00
2023-05-09T02:15:57.553Z,705.00
2023-05-09T02:16:57.604Z,706.00
2023-05-09T02:17:57.569Z,707.00
2023-05-09T02:18:57.523Z,706.00
2023-05-09T02:19:57.560Z,704.00
2023-05-09T02:20:57.514Z,705.00
2023-05-09T02:21:57.668Z,704.00
2023-05-09T02:22:57.520Z,708.00
2023-05-09T02:23:57.467Z,710.00
2023-05-09T02:24:57.471Z,707.00
2023-05-09T02:25:57.577Z,707.00
2023-05-09T02:26:57.694Z,708.00
2023-05-09T02:27:57.465Z,708.00
2023-05-09T02:28:57.449Z,703.00
2023-05-09T02:29:57.446Z,700.00
2023-05-09T02:30:57.472Z,696.00
2023-05-09T02:31:57.516Z,692.00
2023-05-09T02:32:57.477Z,691.00
2023-05-09T02:33:57.476Z,692.00
2023-05-09T02:34:57.462Z,691.00
2023-05-09T02:35:57.455Z,694.00
2023-05-09T02:36:57.448Z,693.00
2023-05-09T02:37:57.479Z,691.00
2023-05-09T02:38:57.430Z,690.00
2023-05-09T02:39:57.435Z,691.00
2023-05-09T02:40:57.428Z,692.00
2023-05-09T02:41:57.537Z,695.00
2023-05-09T02:42:57.444Z,695.00
2023-05-09T02:43:57.430Z,697.00
2023-05-09T02:44:57.414Z,699.00
2023-05-09T02:45:57.482Z,699.00
2023-05-09T02:46:57.436Z,698.00
2023-05-09T02:47:57.450Z,698.00
2023-05-09T02:48:57.431Z,699.00
2023-05-09T02:49:57.423Z,697.00
2023-05-09T02:50:57.387Z,697.00
2023-05-09T02:51:57.408Z,694.00
2023-05-09T02:52:57.404Z,693.00
2023-05-09T02:53:57.369Z,693.00
2023-05-09T02:54:57.426Z,693.00
2023-05-09T02:55:57.392Z,691.00
2023-05-09T02:56:57.670Z,690.00
2023-05-09T02:58:11.889Z,689.00
2023-05-09T02:58:58.387Z,691.00
2023-05-09T02:59:57.406Z,694.00
2023-05-09T03:00:57.393Z,696.00
2023-05-09T03:01:57.470Z,697.00
2023-05-09T03:02:57.485Z,696.00
2023-05-09T03:03:57.400Z,692.00
2023-05-09T03:04:57.346Z,690.00
2023-05-09T03:05:57.383Z,687.00
2023-05-09T03:06:57.361Z,687.00
2023-05-09T03:07:57.330Z,687.00
2023-05-09T03:08:57.350Z,691.00
2023-05-09T03:09:57.331Z,689.00
2023-05-09T03:10:57.334Z,691.00
2023-05-09T03:11:57.343Z,690.00
2023-05-09T03:12:57.341Z,688.00
2023-05-09T03:13:57.401Z,687.00
2023-05-09T03:14:57.306Z,689.00
2023-05-09T03:15:57.314Z,690.00
2023-05-09T03:16:57.317Z,690.00
2023-05-09T03:17:57.381Z,689.00
2023-05-09T03:18:57.284Z,690.00
2023-05-09T03:19:57.298Z,689.00
2023-05-09T03:20:57.307Z,689.00
2023-05-09T03:21:57.245Z,688.00
2023-05-09T03:22:57.729Z,687.00
2023-05-09T03:23:57.244Z,687.00
2023-05-09T03:24:57.231Z,688.00
2023-05-09T03:25:57.250Z,687.00
2023-05-09T03:26:57.241Z,687.00
2023-05-09T03:27:57.203Z,686.00
2023-05-09T03:28:57.202Z,686.00
2023-05-09T03:29:57.293Z,683.00
2023-05-09T03:30:57.183Z,683.00
2023-05-09T03:31:57.203Z,682.00
2023-05-09T03:32:57.189Z,684.00
2023-05-09T03:33:57.199Z,684.00
2023-05-09T03:34:57.150Z,686.00
2023-05-09T03:35:57.142Z,687.00
2023-05-09T03:36:57.244Z,685.00
2023-05-09T03:37:57.170Z,686.00
2023-05-09T03:38:57.149Z,688.00
2023-05-09T03:39:57.138Z,684.00
2023-05-09T03:40:57.150Z,683.00
2023-05-09T03:41:57.142Z,684.00
2023-05-09T03:42:57.165Z,683.00
2023-05-09T03:43:57.083Z,681.00
2023-05-09T03:44:57.123Z,683.00
2023-05-09T03:45:57.215Z,684.00
2023-05-09T03:46:57.110Z,685.00
2023-05-09T03:47:57.108Z,685.00
2023-05-09T03:48:57.109Z,682.00
2023-05-09T03:49:57.069Z,678.00
2023-05-09T03:50:57.075Z,681.00
2023-05-09T03:51:57.117Z,682.00
2023-05-09T03:52:57.112Z,683.00
2023-05-09T03:53:57.055Z,686.00
2023-05-09T03:54:57.045Z,686.00
2023-05-09T03:55:57.042Z,682.00
2023-05-09T03:56:57.044Z,679.00
2023-05-09T03:57:57.050Z,681.00
2023-05-09T03:58:57.008Z,681.00
2023-05-09T03:59:57.013Z,678.00
2023-05-09T04:00:56.999Z,679.00
2023-05-09T04:01:57.106Z,682.00
2023-05-09T04:02:57.038Z,679.00
2023-05-09T04:03:57.014Z,681.00
2023-05-09T04:04:56.999Z,679.00
2023-05-09T04:05:56.978Z,678.00
2023-05-09T04:06:56.976Z,680.00
2023-05-09T04:07:56.957Z,678.00
2023-05-09T04:08:56.962Z,675.00
2023-05-09T04:09:56.930Z,678.00
2023-05-09T04:10:56.937Z,684.00
2023-05-09T04:11:56.903Z,681.00
2023-05-09T04:12:56.978Z,684.00
2023-05-09T04:13:56.968Z,684.00
2023-05-09T04:14:56.887Z,686.00
2023-05-09T04:15:56.894Z,686.00
2023-05-09T04:16:56.990Z,684.00
2023-05-09T04:17:57.104Z,682.00
2023-05-09T04:18:56.894Z,683.00
2023-05-09T04:19:56.931Z,683.00
2023-05-09T04:20:56.878Z,682.00
2023-05-09T04:21:56.878Z,681.00
2023-05-09T04:22:56.864Z,684.00
2023-05-09T04:23:56.859Z,684.00
2023-05-09T04:24:56.870Z,683.00
2023-05-09T04:25:56.862Z,683.00
2023-05-09T04:26:56.879Z,682.00
2023-05-09T04:27:56.877Z,677.00
2023-05-09T04:28:56.850Z,678.00
2023-05-09T04:29:56.882Z,678.00
2023-05-09T04:30:56.889Z,679.00
2023-05-09T04:31:56.945Z,679.00
2023-05-09T04:32:56.907Z,678.00
2023-05-09T04:33:56.958Z,677.00
2023-05-09T04:34:56.876Z,678.00
2023-05-09T04:35:56.860Z,680.00
2023-05-09T04:36:56.863Z,678.00
2023-05-09T04:37:56.816Z,676.00
2023-05-09T04:38:56.823Z,679.00
2023-05-09T04:39:56.829Z,677.00
2023-05-09T04:40:56.821Z,675.00
2023-05-09T04:41:56.816Z,673.00
2023-05-09T04:42:56.848Z,671.00
2023-05-09T04:43:56.819Z,673.00
2023-05-09T04:44:56.822Z,672.00
2023-05-09T04:45:56.848Z,671.00
2023-05-09T04:46:56.823Z,673.00
2023-05-09T04:47:57.265Z,674.00
2023-05-09T04:48:56.809Z,673.00
2023-05-09T04:49:56.901Z,677.00
2023-05-09T04:50:56.825Z,672.00
2023-05-09T04:51:56.822Z,674.00
2023-05-09T04:52:56.850Z,674.00
2023-05-09T04:53:56.819Z,673.00
2023-05-09T04:54:56.856Z,675.00
2023-05-09T04:55:56.845Z,674.00
2023-05-09T04:57:09.944Z,674.00
2023-05-09T04:57:57.893Z,673.00
2023-05-09T04:58:56.831Z,672.00
2023-05-09T04:59:56.819Z,676.00
2023-05-09T05:00:56.819Z,675.00
2023-05-09T05:01:56.865Z,674.00
2023-05-09T05:02:57.289Z,672.00
2023-05-09T05:03:56.813Z,672.00
2023-05-09T05:05:10.258Z,668.00
2023-05-09T05:05:57.884Z,670.00
2023-05-09T05:06:56.773Z,672.00
2023-05-09T05:07:56.823Z,670.00
2023-05-09T05:08:56.756Z,670.00
2023-05-09T05:09:56.753Z,669.00
2023-05-09T05:10:56.776Z,667.00
2023-05-09T05:12:01.270Z,667.00
2023-05-09T05:12:57.785Z,666.00
2023-05-09T05:13:56.771Z,666.00
2023-05-09T05:14:56.726Z,666.00
2023-05-09T05:15:56.738Z,661.00
2023-05-09T05:16:56.689Z,661.00
2023-05-09T05:17:56.730Z,661.00
2023-05-09T05:18:56.697Z,665.00
2023-05-09T05:19:56.700Z,669.00
2023-05-09T05:20:56.712Z,670.00
2023-05-09T05:21:56.850Z,670.00
2023-05-09T05:22:56.671Z,671.00
2023-05-09T05:23:56.662Z,672.00
2023-05-09T05:24:56.663Z,673.00
2023-05-09T05:25:56.669Z,671.00
2023-05-09T05:26:56.633Z,668.00
2023-05-09T05:27:56.750Z,667.00
2023-05-09T05:28:56.634Z,669.00
2023-05-09T05:29:56.610Z,669.00
2023-05-09T05:30:56.602Z,668.00
2023-05-09T05:31:56.723Z,665.00
2023-05-09T05:32:56.633Z,665.00
2023-05-09T05:33:56.599Z,669.00
2023-05-09T05:34:56.580Z,667.00
2023-05-09T05:35:56.569Z,683.00
2023-05-09T05:36:56.568Z,675.00
2023-05-09T05:37:56.673Z,668.00
2023-05-09T05:38:56.584Z,666.00
2023-05-09T05:39:56.550Z,668.00
2023-05-09T05:40:56.558Z,669.00
2023-05-09T05:41:56.521Z,670.00
2023-05-09T05:42:56.718Z,672.00
2023-05-09T05:43:56.526Z,670.00
2023-05-09T05:44:56.507Z,670.00
2023-05-09T05:45:56.547Z,667.00
2023-05-09T05:46:56.506Z,667.00
2023-05-09T05:47:56.556Z,664.00
2023-05-09T05:48:56.462Z,670.00
2023-05-09T05:49:56.494Z,677.00
2023-05-09T05:50:56.492Z,677.00
2023-05-09T05:51:56.494Z,681.00
2023-05-09T05:52:56.746Z,686.00
2023-05-09T05:53:56.547Z,691.00
2023-05-09T05:54:56.491Z,690.00
2023-05-09T05:55:56.449Z,696.00
2023-05-09T05:56:56.447Z,699.00
2023-05-09T05:57:56.771Z,697.00
2023-05-09T05:58:56.409Z,694.00
2023-05-09T05:59:56.413Z,698.00
2023-05-09T06:00:56.459Z,704.00
2023-05-09T06:01:56.451Z,706.00
2023-05-09T06:02:56.847Z,713.00
2023-05-09T06:03:56.510Z,712.00
2023-05-09T06:04:56.380Z,711.00
2023-05-09T06:05:56.413Z,712.00
2023-05-09T06:06:56.402Z,711.00
2023-05-09T06:07:56.391Z,713.00
2023-05-09T06:08:56.421Z,779.00
2023-05-09T06:09:56.491Z,821.00
2023-05-09T06:10:56.391Z,864.00
2023-05-09T06:11:56.405Z,863.00
2023-05-09T06:12:56.449Z,866.00
2023-05-09T06:13:56.423Z,888.00
2023-05-09T06:14:56.407Z,899.00
2023-05-09T06:16:01.934Z,940.00
2023-05-09T06:16:57.521Z,952.00
2023-05-09T06:17:56.796Z,963.00
2023-05-09T06:18:56.465Z,1088.00
2023-05-09T06:19:56.410Z,1077.00
2023-05-09T06:20:56.395Z,1087.00
2023-05-09T06:21:56.415Z,1088.00
2023-05-09T06:22:56.408Z,1145.00
2023-05-09T06:24:56.371Z,1107.00
2023-05-09T06:25:56.466Z,1037.00
2023-05-09T06:26:56.352Z,1023.00
2023-05-09T06:27:56.361Z,1039.00
2023-05-09T06:28:56.343Z,1020.00
2023-05-09T06:29:56.340Z,987.00
2023-05-09T06:30:56.362Z,950.00
2023-05-09T06:31:56.346Z,894.00
2023-05-09T06:32:56.366Z,869.00
2023-05-09T06:33:56.345Z,882.00
2023-05-09T06:34:56.308Z,870.00
2023-05-09T06:35:56.325Z,837.00
2023-05-09T06:36:56.283Z,834.00
2023-05-09T06:37:56.339Z,839.00
2023-05-09T06:38:56.294Z,836.00
2023-05-09T06:39:56.275Z,819.00
2023-05-09T06:40:56.271Z,780.00
2023-05-09T06:41:56.354Z,780.00
2023-05-09T06:42:56.752Z,772.00
2023-05-09T06:43:56.274Z,765.00
2023-05-09T06:44:56.286Z,766.00
2023-05-09T06:45:56.270Z,762.00
2023-05-09T06:46:56.210Z,768.00
2023-05-09T06:47:56.299Z,842.00
2023-05-09T06:48:56.207Z,842.00
2023-05-09T06:49:56.223Z,847.00
2023-05-09T06:50:56.222Z,832.00
2023-05-09T06:51:56.199Z,830.00
2023-05-09T06:52:56.236Z,826.00
2023-05-09T06:53:56.242Z,825.00
2023-05-09T06:54:56.176Z,852.00
2023-05-09T06:55:56.158Z,856.00
2023-05-09T06:56:56.163Z,841.00
2023-05-09T06:57:56.257Z,833.00
2023-05-09T06:58:56.171Z,836.00
2023-05-09T06:59:56.168Z,839.00
2023-05-09T07:00:56.134Z,843.00
2023-05-09T07:01:56.145Z,841.00
2023-05-09T07:02:56.152Z,837.00
2023-05-09T07:03:56.117Z,831.00
2023-05-09T07:04:56.181Z,826.00
2023-05-09T07:05:56.096Z,827.00
2023-05-09T07:06:56.129Z,845.00
2023-05-09T07:07:56.098Z,843.00
2023-05-09T07:08:56.098Z,829.00
2023-05-09T07:10:07.290Z,830.00
2023-05-09T07:10:57.042Z,826.00
2023-05-09T07:11:56.066Z,823.00
2023-05-09T07:12:56.129Z,830.00
2023-05-09T07:13:56.143Z,829.00
2023-05-09T07:14:56.025Z,824.00
2023-05-09T07:15:56.096Z,810.00
2023-05-09T07:17:05.155Z,810.00
2023-05-09T07:17:57.092Z,840.00
2023-05-09T07:18:56.007Z,844.00
2023-05-09T07:19:55.979Z,846.00
2023-05-09T07:20:56.010Z,840.00
2023-05-09T07:21:55.996Z,843.00
2023-05-09T07:22:56.048Z,843.00
2023-05-09T07:23:56.258Z,841.00
2023-05-09T07:24:55.966Z,846.00
2023-05-09T07:25:55.970Z,854.00
2023-05-09T07:26:55.940Z,873.00
2023-05-09T07:27:55.959Z,884.00
2023-05-09T07:28:55.988Z,879.00
2023-05-09T07:29:56.050Z,888.00
2023-05-09T07:30:55.927Z,888.00
2023-05-09T07:31:55.940Z,895.00
2023-05-09T07:32:55.973Z,900.00
2023-05-09T07:33:56.297Z,907.00
2023-05-09T07:34:55.922Z,941.00
2023-05-09T07:35:55.963Z,944.00
2023-05-09T07:36:55.996Z,950.00
2023-05-09T07:37:56.974Z,956.00
2023-05-09T07:38:56.309Z,961.00
2023-05-09T07:39:55.974Z,961.00
2023-05-09T07:40:55.989Z,1000.00
2023-05-09T07:41:55.940Z,1013.00
2023-05-09T07:42:55.959Z,995.00
2023-05-09T07:43:56.289Z,986.00
2023-05-09T07:44:55.912Z,998.00
2023-05-09T07:45:56.055Z,1012.00
2023-05-09T07:46:55.901Z,1011.00
2023-05-09T07:47:55.959Z,1016.00
2023-05-09T07:48:56.275Z,1015.00
2023-05-09T07:49:55.906Z,1027.00
2023-05-09T07:50:55.900Z,1032.00
2023-05-09T07:51:55.928Z,1054.00
2023-05-09T07:52:55.832Z,1061.00
2023-05-09T07:53:55.841Z,1124.00
2023-05-09T07:54:55.876Z,1108.00
2023-05-09T07:55:55.870Z,1110.00
2023-05-09T07:56:55.845Z,1112.00
2023-05-09T07:57:55.791Z,1133.00
2023-05-09T07:58:56.006Z,1014.00
2023-05-09T07:59:55.806Z,940.00
2023-05-09T08:00:55.808Z,1026.00
2023-05-09T08:01:55.967Z,1048.00
2023-05-09T08:02:55.848Z,1097.00
2023-05-09T08:03:56.337Z,1130.00
2023-05-09T08:04:55.785Z,1181.00
2023-05-09T08:05:55.783Z,1212.00
2023-05-09T08:06:55.762Z,1216.00
2023-05-09T08:07:55.775Z,1219.00
2023-05-09T08:08:55.757Z,1232.00
2023-05-09T08:09:55.751Z,1251.00
2023-05-09T08:10:55.723Z,1275.00
2023-05-09T08:11:55.738Z,1296.00
2023-05-09T08:12:55.759Z,1340.00
2023-05-09T08:13:55.726Z,1359.00
2023-05-09T08:14:55.711Z,1378.00
2023-05-09T08:15:55.728Z,1393.00
2023-05-09T08:16:55.714Z,1413.00
2023-05-09T08:17:55.862Z,1430.00
2023-05-09T08:18:55.826Z,1473.00
2023-05-09T08:19:55.667Z,1490.00
2023-05-09T08:20:55.673Z,1509.00
2023-05-09T08:21:55.679Z,1525.00
2023-05-09T08:22:55.683Z,1558.00
2023-05-09T08:23:55.668Z,1579.00
2023-05-09T08:24:55.707Z,1604.00
2023-05-09T08:25:55.773Z,1630.00
2023-05-09T08:26:55.825Z,1645.00
2023-05-09T08:27:55.886Z,1661.00
2023-05-09T08:28:56.283Z,1695.00
2023-05-09T08:29:56.007Z,1711.00
2023-05-09T08:30:56.151Z,1724.00
2023-05-09T08:31:56.246Z,1745.00
2023-05-09T08:32:56.212Z,1769.00
2023-05-09T08:33:56.331Z,1786.00
2023-05-09T08:34:56.296Z,1815.00
2023-05-09T08:35:56.408Z,1832.00
2023-05-09T08:36:56.414Z,1849.00
2023-05-09T08:37:56.473Z,1862.00
2023-05-09T08:38:56.806Z,1875.00
2023-05-09T08:39:56.557Z,1894.00
2023-05-09T08:40:56.631Z,1918.00
2023-05-09T08:41:56.702Z,1943.00
2023-05-09T08:42:56.745Z,1963.00
2023-05-09T08:43:56.792Z,1983.00
2023-05-09T08:44:56.832Z,1992.00
2023-05-09T08:45:56.893Z,2005.00
2023-05-09T08:46:56.967Z,2025.00
2023-05-09T08:47:57.069Z,2048.00
2023-05-09T08:48:57.312Z,2077.00
2023-05-09T08:49:57.163Z,2099.00
2023-05-09T08:50:57.087Z,2114.00
2023-05-09T08:51:57.148Z,2123.00
2023-05-09T08:52:57.198Z,2109.00
2023-05-09T08:53:57.223Z,1759.00
2023-05-09T08:54:57.270Z,1690.00
2023-05-09T08:55:57.306Z,1675.00
2023-05-09T08:56:57.367Z,1590.00
2023-05-09T08:57:57.494Z,1534.00
2023-05-09T08:58:57.554Z,1429.00
2023-05-09T08:59:57.599Z,1431.00
2023-05-09T09:00:57.659Z,1480.00
2023-05-09T09:01:57.730Z,1544.00
2023-05-09T09:02:57.798Z,1586.00
2023-05-09T09:03:58.299Z,1623.00
2023-05-09T09:04:57.928Z,1645.00
2023-05-09T09:05:58.111Z,1674.00
2023-05-09T09:06:57.990Z,1691.00
2023-05-09T09:07:58.057Z,1703.00
2023-05-09T09:08:58.342Z,1710.00
2023-05-09T09:09:58.139Z,1727.00
2023-05-09T09:10:58.218Z,1745.00
2023-05-09T09:11:58.221Z,1759.00
2023-05-09T09:12:58.323Z,1773.00
2023-05-09T09:13:58.368Z,1813.00
2023-05-09T09:14:58.397Z,1827.00
2023-05-09T09:15:58.539Z,1845.00
2023-05-09T09:16:58.596Z,1861.00
2023-05-09T09:17:58.547Z,1902.00
2023-05-09T09:18:59.175Z,1914.00
2023-05-09T09:19:59.547Z,1925.00
2023-05-09T09:20:58.555Z,1953.00
2023-05-09T09:21:58.622Z,1958.00
2023-05-09T09:22:58.499Z,1961.00
2023-05-09T09:23:58.812Z,1975.00
2023-05-09T09:24:58.510Z,1994.00
2023-05-09T09:25:59.757Z,2016.00
2023-05-09T09:26:58.565Z,2039.00
2023-05-09T09:27:58.566Z,2052.00
2023-05-09T09:28:58.589Z,2061.00
2023-05-09T09:29:58.627Z,2066.00
2023-05-09T09:30:58.659Z,2076.00
2023-05-09T09:31:58.734Z,2095.00
2023-05-09T09:32:58.728Z,2133.00
2023-05-09T09:33:58.746Z,2148.00
2023-05-09T09:34:58.758Z,2102.00
2023-05-09T09:35:58.805Z,1854.00
2023-05-09T09:36:58.845Z,1457.00
2023-05-09T09:38:00.105Z,1220.00
2023-05-09T09:38:59.328Z,1222.00
2023-05-09T09:39:59.012Z,1088.00
2023-05-09T09:40:59.011Z,990.00
2023-05-09T09:41:59.014Z,1151.00
2023-05-09T09:42:58.995Z,1222.00
2023-05-09T09:43:59.347Z,1285.00
2023-05-09T09:44:59.015Z,1346.00
2023-05-09T09:45:59.117Z,1381.00
2023-05-09T09:46:58.994Z,1353.00
2023-05-09T09:47:59.036Z,1142.00
2023-05-09T09:48:59.336Z,1057.00
2023-05-09T09:49:59.012Z,1066.00
2023-05-09T09:50:59.010Z,1141.00
2023-05-09T09:51:58.974Z,1179.00
2023-05-09T09:52:58.980Z,1199.00
2023-05-09T09:53:59.326Z,1209.00
2023-05-09T09:54:59.015Z,1219.00
2023-05-09T09:55:59.053Z,1241.00
2023-05-09T09:56:59.112Z,1283.00
2023-05-09T09:57:59.126Z,1307.00
2023-05-09T09:58:59.200Z,1336.00
2023-05-09T09:59:59.256Z,1353.00
2023-05-09T10:00:59.353Z,1392.00
2023-05-09T10:01:59.381Z,1412.00
2023-05-09T10:02:59.494Z,1433.00
2023-05-09T10:03:59.503Z,1464.00
2023-05-09T10:04:59.543Z,1488.00
2023-05-09T10:05:59.592Z,1507.00
2023-05-09T10:06:59.690Z,1549.00
2023-05-09T10:07:59.725Z,1569.00
2023-05-09T10:08:59.837Z,1583.00
2023-05-09T10:09:59.877Z,1596.00
2023-05-09T10:10:59.816Z,1612.00
2023-05-09T10:12:00.816Z,1652.00
2023-05-09T10:12:59.945Z,1667.00
2023-05-09T10:14:00.332Z,1672.00
2023-05-09T10:14:59.985Z,1709.00
2023-05-09T10:16:00.164Z,1719.00
2023-05-09T10:17:00.246Z,1738.00
2023-05-09T10:18:00.252Z,1759.00
2023-05-09T10:19:00.234Z,1775.00
2023-05-09T10:20:00.333Z,1798.00
2023-05-09T10:21:00.173Z,1820.00
2023-05-09T10:22:00.204Z,1847.00
2023-05-09T10:23:00.219Z,1858.00
2023-05-09T10:24:00.280Z,1876.00
2023-05-09T10:25:00.347Z,1905.00
2023-05-09T10:26:00.380Z,1935.00
2023-05-09T10:27:00.327Z,1949.00
2023-05-09T10:28:01.346Z,1963.00
2023-05-09T10:29:00.379Z,1994.00
2023-05-09T10:30:00.401Z,2017.00
2023-05-09T10:31:00.461Z,2038.00
2023-05-09T10:32:00.394Z,2064.00
2023-05-09T10:33:00.461Z,2076.00
2023-05-09T10:34:00.466Z,2094.00
2023-05-09T10:35:00.836Z,2107.00
2023-05-09T10:36:00.475Z,1973.00
2023-05-09T10:37:00.507Z,1902.00
2023-05-09T10:38:00.528Z,1752.00
2023-05-09T10:39:00.541Z,1713.00
2023-05-09T10:40:00.580Z,1657.00
2023-05-09T10:41:00.629Z,1684.00
2023-05-09T10:42:00.758Z,1649.00
2023-05-09T10:43:00.686Z,1591.00
2023-05-09T10:44:00.707Z,1606.00
2023-05-09T10:45:00.727Z,1636.00
2023-05-09T10:46:00.763Z,1650.00
2023-05-09T10:47:00.845Z,1673.00
2023-05-09T10:48:00.825Z,1691.00
2023-05-09T10:49:00.843Z,1711.00
2023-05-09T10:50:00.864Z,1729.00
2023-05-09T10:51:00.857Z,1745.00
2023-05-09T10:52:00.873Z,1760.00
2023-05-09T10:53:00.908Z,1780.00
2023-05-09T10:54:00.965Z,1807.00
2023-05-09T10:55:01.339Z,1834.00
2023-05-09T10:56:00.967Z,1849.00
2023-05-09T10:57:00.973Z,1868.00
2023-05-09T10:58:01.104Z,1896.00
2023-05-09T10:59:01.014Z,1913.00
2023-05-09T11:00:01.335Z,1927.00
2023-05-09T11:01:01.021Z,1966.00
2023-05-09T11:02:01.170Z,1981.00
2023-05-09T11:03:01.094Z,1994.00
2023-05-09T11:04:01.134Z,2016.00
2023-05-09T11:05:01.367Z,2028.00
2023-05-09T11:06:01.062Z,2055.00
2023-05-09T11:07:01.100Z,2078.00
2023-05-09T11:08:01.065Z,2102.00
2023-05-09T11:09:01.090Z,2106.00
2023-05-09T11:10:01.367Z,2007.00
2023-05-09T11:11:01.153Z,1850.00
2023-05-09T11:12:01.121Z,1758.00
2023-05-09T11:13:01.134Z,1136.00
2023-05-09T11:14:01.245Z,1082.00
2023-05-09T11:15:01.356Z,1324.00
2023-05-09T11:16:01.258Z,1478.00
2023-05-09T11:17:01.240Z,1504.00
2023-05-09T11:18:01.361Z,1465.00
2023-05-09T11:19:01.335Z,1471.00
2023-05-09T11:20:01.907Z,1480.00
2023-05-09T11:21:01.426Z,1512.00
2023-05-09T11:22:01.503Z,1533.00
2023-05-09T11:23:01.508Z,1545.00
2023-05-09T11:24:01.490Z,1549.00
2023-05-09T11:25:01.852Z,1544.00
2023-05-09T11:26:01.579Z,1555.00
2023-05-09T11:27:01.600Z,1569.00
2023-05-09T11:28:01.605Z,1578.00
2023-05-09T11:29:01.600Z,1578.00
2023-05-09T11:30:01.761Z,1568.00
2023-05-09T11:31:01.675Z,1605.00
2023-05-09T11:32:01.703Z,1597.00
2023-05-09T11:33:01.736Z,1600.00
2023-05-09T11:34:01.723Z,1601.00
2023-05-09T11:35:01.900Z,1593.00
2023-05-09T11:36:01.724Z,1575.00
2023-05-09T11:37:01.734Z,1575.00
2023-05-09T11:38:01.786Z,1500.00
2023-05-09T11:39:01.835Z,1438.00
2023-05-09T11:40:01.849Z,1403.00
2023-05-09T11:41:01.875Z,1073.00
2023-05-09T11:42:02.102Z,1144.00
2023-05-09T11:43:01.923Z,1282.00
2023-05-09T11:44:01.914Z,1312.00
2023-05-09T11:45:02.360Z,1325.00
2023-05-09T11:46:02.153Z,1320.00
2023-05-09T11:47:02.015Z,1193.00
2023-05-09T11:48:02.133Z,1216.00
2023-05-09T11:49:02.145Z,1228.00
2023-05-09T11:50:02.139Z,1251.00
2023-05-09T11:51:02.180Z,1228.00
2023-05-09T11:52:02.218Z,1242.00
2023-05-09T11:53:02.267Z,1241.00
2023-05-09T11:54:02.308Z,1224.00
2023-05-09T11:55:02.352Z,1218.00
2023-05-09T11:56:02.381Z,1049.00
2023-05-09T11:57:02.412Z,936.00
2023-05-09T11:58:02.481Z,1018.00
2023-05-09T11:59:02.513Z,1048.00
2023-05-09T12:00:02.841Z,1067.00
2023-05-09T12:01:02.622Z,1078.00
2023-05-09T12:02:02.868Z,1085.00
2023-05-09T12:03:02.812Z,905.00
2023-05-09T12:04:02.892Z,845.00
2023-05-09T12:05:02.853Z,903.00
2023-05-09T12:06:02.879Z,944.00
2023-05-09T12:07:02.936Z,947.00
2023-05-09T12:08:02.989Z,795.00
2023-05-09T12:09:03.073Z,721.00
2023-05-09T12:10:03.410Z,787.00
2023-05-09T12:11:03.214Z,787.00
2023-05-09T12:12:03.241Z,794.00
2023-05-09T12:13:03.369Z,792.00
2023-05-09T12:14:03.361Z,795.00
2023-05-09T12:15:03.849Z,794.00
2023-05-09T12:16:03.518Z,787.00
2023-05-09T12:17:03.590Z,783.00
2023-05-09T12:18:03.810Z,803.00
2023-05-09T12:19:03.682Z,795.00
2023-05-09T12:20:04.457Z,792.00
2023-05-09T12:21:03.832Z,797.00
2023-05-09T12:22:03.864Z,798.00